sensor_id;sensor_type;location;lat;lon;timestamp;temperature;humidity
11188;DHT22;5650;52.700;7.306;2024-03-02T00:02:01;9.10;99.90
11188;DHT22;5650;52.700;7.306;2024-03-02T00:04:45;8.90;99.90
11188;DHT22;5650;52.700;7.306;2024-03-02T00:07:14;8.90;99.90
11188;DHT22;5650;52.700;7.306;2024-03-02T00:09:41;8.90;99.90
11188;DHT22;5650;52.700;7.306;2024-03-02T00:12:10;8.90;99.90
11188;DHT22;5650;52.700;7.306;2024-03-02T00:14:44;8.90;99.90
11188;DHT22;5650;52.700;7.306;2024-03-02T00:17:24;8.90;99.90
11188;DHT22;5650;52.700;7.306;2024-03-02T00:19:56;8.90;99.90
11188;DHT22;5650;52.700;7.306;2024-03-02T00:22:26;8.80;99.90
11188;DHT22;5650;52.700;7.306;2024-03-02T00:24:57;8.80;99.90
11188;DHT22;5650;52.700;7.306;2024-03-02T00:27:25;8.70;99.90
11188;DHT22;5650;52.700;7.306;2024-03-02T00:29:52;8.60;99.90
11188;DHT22;5650;52.700;7.306;2024-03-02T00:32:19;8.60;99.90
11188;DHT22;5650;52.700;7.306;2024-03-02T00:34:47;8.60;99.90
11188;DHT22;5650;52.700;7.306;2024-03-02T00:37:15;8.60;99.90
11188;DHT22;5650;52.700;7.306;2024-03-02T00:39:42;8.50;99.90
11188;DHT22;5650;52.700;7.306;2024-03-02T00:42:12;8.40;99.90
11188;DHT22;5650;52.700;7.306;2024-03-02T00:44:39;8.40;99.90
11188;DHT22;5650;52.700;7.306;2024-03-02T00:47:12;8.40;99.90
11188;DHT22;5650;52.700;7.306;2024-03-02T00:49:39;8.40;99.90
11188;DHT22;5650;52.700;7.306;2024-03-02T00:52:10;8.50;99.90
11188;DHT22;5650;52.700;7.306;2024-03-02T00:54:39;8.60;99.90
11188;DHT22;5650;52.700;7.306;2024-03-02T00:57:10;8.60;99.90
11188;DHT22;5650;52.700;7.306;2024-03-02T00:59:38;8.50;99.90
11188;DHT22;5650;52.700;7.306;2024-03-02T01:02:05;8.50;99.90
11188;DHT22;5650;52.700;7.306;2024-03-02T01:04:34;8.50;99.90
11188;DHT22;5650;52.700;7.306;2024-03-02T01:07:04;8.50;99.90
11188;DHT22;5650;52.700;7.306;2024-03-02T01:09:31;8.50;99.90
11188;DHT22;5650;52.700;7.306;2024-03-02T01:12:00;8.60;99.90
11188;DHT22;5650;52.700;7.306;2024-03-02T01:14:27;8.70;99.90
11188;DHT22;5650;52.700;7.306;2024-03-02T01:17:04;8.70;99.90
11188;DHT22;5650;52.700;7.306;2024-03-02T01:19:31;8.80;99.90
11188;DHT22;5650;52.700;7.306;2024-03-02T01:22:01;8.80;99.90
11188;DHT22;5650;52.700;7.306;2024-03-02T01:24:31;8.90;99.90
11188;DHT22;5650;52.700;7.306;2024-03-02T01:27:05;9.00;99.90
11188;DHT22;5650;52.700;7.306;2024-03-02T01:29:35;9.10;99.90
11188;DHT22;5650;52.700;7.306;2024-03-02T01:32:02;9.20;99.90
11188;DHT22;5650;52.700;7.306;2024-03-02T01:34:34;9.10;99.90
11188;DHT22;5650;52.700;7.306;2024-03-02T01:37:02;9.20;99.90
11188;DHT22;5650;52.700;7.306;2024-03-02T01:39:29;9.20;99.90
11188;DHT22;5650;52.700;7.306;2024-03-02T01:41:57;9.30;99.90
11188;DHT22;5650;52.700;7.306;2024-03-02T01:44:25;9.30;99.90
11188;DHT22;5650;52.700;7.306;2024-03-02T01:46:56;9.30;99.90
11188;DHT22;5650;52.700;7.306;2024-03-02T01:49:23;9.40;99.90
11188;DHT22;5650;52.700;7.306;2024-03-02T01:51:52;9.40;99.90
11188;DHT22;5650;52.700;7.306;2024-03-02T01:54:25;9.50;99.90
11188;DHT22;5650;52.700;7.306;2024-03-02T01:56:52;9.60;99.90
11188;DHT22;5650;52.700;7.306;2024-03-02T01:59:19;9.50;99.90
11188;DHT22;5650;52.700;7.306;2024-03-02T02:01:51;9.40;99.90
11188;DHT22;5650;52.700;7.306;2024-03-02T02:04:21;9.50;99.90
11188;DHT22;5650;52.700;7.306;2024-03-02T02:06:52;9.40;99.90
11188;DHT22;5650;52.700;7.306;2024-03-02T02:09:23;9.50;99.90
11188;DHT22;5650;52.700;7.306;2024-03-02T02:11:51;9.60;99.90
11188;DHT22;5650;52.700;7.306;2024-03-02T02:14:21;9.60;99.90
11188;DHT22;5650;52.700;7.306;2024-03-02T02:16:53;9.60;99.90
11188;DHT22;5650;52.700;7.306;2024-03-02T02:19:23;9.60;99.90
11188;DHT22;5650;52.700;7.306;2024-03-02T02:21:52;9.60;99.90
11188;DHT22;5650;52.700;7.306;2024-03-02T02:24:19;9.70;99.90
11188;DHT22;5650;52.700;7.306;2024-03-02T02:26:49;9.80;99.90
11188;DHT22;5650;52.700;7.306;2024-03-02T02:29:16;9.80;99.90
11188;DHT22;5650;52.700;7.306;2024-03-02T02:31:46;9.80;99.90
11188;DHT22;5650;52.700;7.306;2024-03-02T02:34:17;9.80;99.90
11188;DHT22;5650;52.700;7.306;2024-03-02T02:36:44;9.80;99.90
11188;DHT22;5650;52.700;7.306;2024-03-02T02:39:15;9.90;99.90
11188;DHT22;5650;52.700;7.306;2024-03-02T02:41:43;9.70;99.90
11188;DHT22;5650;52.700;7.306;2024-03-02T02:44:10;9.70;99.90
11188;DHT22;5650;52.700;7.306;2024-03-02T02:46:38;9.80;99.90
11188;DHT22;5650;52.700;7.306;2024-03-02T02:49:05;9.80;99.90
11188;DHT22;5650;52.700;7.306;2024-03-02T02:51:39;9.80;99.90
11188;DHT22;5650;52.700;7.306;2024-03-02T02:54:13;9.80;99.90
11188;DHT22;5650;52.700;7.306;2024-03-02T02:56:40;9.80;99.90
11188;DHT22;5650;52.700;7.306;2024-03-02T02:59:07;9.80;99.90
11188;DHT22;5650;52.700;7.306;2024-03-02T03:01:34;9.80;99.90
11188;DHT22;5650;52.700;7.306;2024-03-02T03:04:01;9.80;99.90
11188;DHT22;5650;52.700;7.306;2024-03-02T03:06:35;9.70;99.90
11188;DHT22;5650;52.700;7.306;2024-03-02T03:09:02;9.60;99.90
11188;DHT22;5650;52.700;7.306;2024-03-02T03:11:33;9.50;99.90
11188;DHT22;5650;52.700;7.306;2024-03-02T03:14:00;9.60;99.90
11188;DHT22;5650;52.700;7.306;2024-03-02T03:16:31;9.60;99.90
11188;DHT22;5650;52.700;7.306;2024-03-02T03:19:08;9.60;99.90
11188;DHT22;5650;52.700;7.306;2024-03-02T03:21:38;9.60;99.90
11188;DHT22;5650;52.700;7.306;2024-03-02T03:24:05;9.60;99.90
11188;DHT22;5650;52.700;7.306;2024-03-02T03:26:38;9.60;99.90
11188;DHT22;5650;52.700;7.306;2024-03-02T03:29:08;9.60;99.90
11188;DHT22;5650;52.700;7.306;2024-03-02T03:31:35;9.70;99.90
11188;DHT22;5650;52.700;7.306;2024-03-02T03:34:02;9.70;99.90
11188;DHT22;5650;52.700;7.306;2024-03-02T03:36:29;9.70;99.90
11188;DHT22;5650;52.700;7.306;2024-03-02T03:38:57;9.70;99.90
11188;DHT22;5650;52.700;7.306;2024-03-02T03:41:24;9.60;99.90
11188;DHT22;5650;52.700;7.306;2024-03-02T03:43:53;9.70;99.90
11188;DHT22;5650;52.700;7.306;2024-03-02T03:46:21;9.80;99.90
11188;DHT22;5650;52.700;7.306;2024-03-02T03:48:48;9.80;99.90
11188;DHT22;5650;52.700;7.306;2024-03-02T03:51:15;9.90;99.90
11188;DHT22;5650;52.700;7.306;2024-03-02T03:53:45;10.00;99.90
11188;DHT22;5650;52.700;7.306;2024-03-02T03:56:13;10.00;99.90
11188;DHT22;5650;52.700;7.306;2024-03-02T03:58:40;10.10;99.90
11188;DHT22;5650;52.700;7.306;2024-03-02T04:01:08;10.10;99.90
11188;DHT22;5650;52.700;7.306;2024-03-02T04:03:36;10.20;99.90
11188;DHT22;5650;52.700;7.306;2024-03-02T04:06:09;10.20;99.90
11188;DHT22;5650;52.700;7.306;2024-03-02T04:08:36;10.20;99.90
11188;DHT22;5650;52.700;7.306;2024-03-02T04:11:13;10.20;99.90
11188;DHT22;5650;52.700;7.306;2024-03-02T04:13:40;10.20;99.90
11188;DHT22;5650;52.700;7.306;2024-03-02T04:16:17;10.10;99.90
11188;DHT22;5650;52.700;7.306;2024-03-02T04:18:44;10.00;99.90
11188;DHT22;5650;52.700;7.306;2024-03-02T04:21:11;10.00;99.90
11188;DHT22;5650;52.700;7.306;2024-03-02T04:23:39;9.90;99.90
11188;DHT22;5650;52.700;7.306;2024-03-02T04:26:06;9.90;99.90
11188;DHT22;5650;52.700;7.306;2024-03-02T04:28:36;9.80;99.90
11188;DHT22;5650;52.700;7.306;2024-03-02T04:31:06;9.80;99.90
11188;DHT22;5650;52.700;7.306;2024-03-02T04:33:37;9.70;99.90
11188;DHT22;5650;52.700;7.306;2024-03-02T04:36:07;9.80;99.90
11188;DHT22;5650;52.700;7.306;2024-03-02T04:38:44;9.70;99.90
11188;DHT22;5650;52.700;7.306;2024-03-02T04:41:11;9.80;99.90
11188;DHT22;5650;52.700;7.306;2024-03-02T04:43:38;9.70;99.90
11188;DHT22;5650;52.700;7.306;2024-03-02T04:46:06;9.80;99.90
11188;DHT22;5650;52.700;7.306;2024-03-02T04:48:38;9.80;99.90
11188;DHT22;5650;52.700;7.306;2024-03-02T04:51:05;9.70;99.90
11188;DHT22;5650;52.700;7.306;2024-03-02T04:53:35;9.70;99.90
11188;DHT22;5650;52.700;7.306;2024-03-02T04:56:02;9.70;99.90
11188;DHT22;5650;52.700;7.306;2024-03-02T04:58:47;9.70;99.90
11188;DHT22;5650;52.700;7.306;2024-03-02T05:01:14;9.70;99.90
11188;DHT22;5650;52.700;7.306;2024-03-02T05:03:47;9.70;99.90
11188;DHT22;5650;52.700;7.306;2024-03-02T05:06:14;9.70;99.90
11188;DHT22;5650;52.700;7.306;2024-03-02T05:08:44;9.70;99.90
11188;DHT22;5650;52.700;7.306;2024-03-02T05:11:12;9.70;99.90
11188;DHT22;5650;52.700;7.306;2024-03-02T05:13:56;9.70;99.90
11188;DHT22;5650;52.700;7.306;2024-03-02T05:16:26;9.70;99.90
11188;DHT22;5650;52.700;7.306;2024-03-02T05:18:55;9.70;99.90
11188;DHT22;5650;52.700;7.306;2024-03-02T05:21:22;9.70;99.90
11188;DHT22;5650;52.700;7.306;2024-03-02T05:23:49;9.70;99.90
11188;DHT22;5650;52.700;7.306;2024-03-02T05:26:19;9.70;99.90
11188;DHT22;5650;52.700;7.306;2024-03-02T05:28:46;9.70;99.90
11188;DHT22;5650;52.700;7.306;2024-03-02T05:31:15;9.80;99.90
11188;DHT22;5650;52.700;7.306;2024-03-02T05:33:42;9.80;99.90
11188;DHT22;5650;52.700;7.306;2024-03-02T05:36:11;10.10;99.90
11188;DHT22;5650;52.700;7.306;2024-03-02T05:38:43;10.20;99.90
11188;DHT22;5650;52.700;7.306;2024-03-02T05:41:13;10.10;99.90
11188;DHT22;5650;52.700;7.306;2024-03-02T05:43:52;9.80;99.90
11188;DHT22;5650;52.700;7.306;2024-03-02T05:46:19;9.70;99.90
11188;DHT22;5650;52.700;7.306;2024-03-02T05:48:47;9.60;99.90
11188;DHT22;5650;52.700;7.306;2024-03-02T05:51:16;9.50;99.90
11188;DHT22;5650;52.700;7.306;2024-03-02T05:53:44;9.40;99.90
11188;DHT22;5650;52.700;7.306;2024-03-02T05:56:17;9.40;99.90
11188;DHT22;5650;52.700;7.306;2024-03-02T05:58:44;9.10;99.90
11188;DHT22;5650;52.700;7.306;2024-03-02T06:01:25;8.80;99.90
11188;DHT22;5650;52.700;7.306;2024-03-02T06:03:59;8.40;99.90
11188;DHT22;5650;52.700;7.306;2024-03-02T06:06:28;8.10;99.90
11188;DHT22;5650;52.700;7.306;2024-03-02T06:08:55;7.90;99.90
11188;DHT22;5650;52.700;7.306;2024-03-02T06:11:33;7.70;99.90
11188;DHT22;5650;52.700;7.306;2024-03-02T06:14:08;7.60;99.90
11188;DHT22;5650;52.700;7.306;2024-03-02T06:16:35;7.40;99.90
11188;DHT22;5650;52.700;7.306;2024-03-02T06:19:03;7.40;99.90
11188;DHT22;5650;52.700;7.306;2024-03-02T06:21:39;7.30;99.90
11188;DHT22;5650;52.700;7.306;2024-03-02T06:24:09;7.30;99.90
11188;DHT22;5650;52.700;7.306;2024-03-02T06:26:42;7.30;99.90
11188;DHT22;5650;52.700;7.306;2024-03-02T06:29:09;7.30;99.90
11188;DHT22;5650;52.700;7.306;2024-03-02T06:31:38;7.30;99.90
11188;DHT22;5650;52.700;7.306;2024-03-02T06:34:06;7.30;99.90
11188;DHT22;5650;52.700;7.306;2024-03-02T06:36:35;7.30;99.90
11188;DHT22;5650;52.700;7.306;2024-03-02T06:39:05;7.30;99.90
11188;DHT22;5650;52.700;7.306;2024-03-02T06:41:41;7.30;99.90
11188;DHT22;5650;52.700;7.306;2024-03-02T06:44:08;7.30;99.90
11188;DHT22;5650;52.700;7.306;2024-03-02T06:46:36;7.30;99.90
11188;DHT22;5650;52.700;7.306;2024-03-02T06:49:03;7.30;99.90
11188;DHT22;5650;52.700;7.306;2024-03-02T06:51:30;7.40;99.90
11188;DHT22;5650;52.700;7.306;2024-03-02T06:53:59;7.40;99.90
11188;DHT22;5650;52.700;7.306;2024-03-02T06:56:32;7.40;99.90
11188;DHT22;5650;52.700;7.306;2024-03-02T06:58:59;7.50;99.90
11188;DHT22;5650;52.700;7.306;2024-03-02T07:01:26;7.50;99.90
11188;DHT22;5650;52.700;7.306;2024-03-02T07:03:56;7.60;99.90
11188;DHT22;5650;52.700;7.306;2024-03-02T07:06:26;7.70;99.90
11188;DHT22;5650;52.700;7.306;2024-03-02T07:09:10;7.80;99.90
11188;DHT22;5650;52.700;7.306;2024-03-02T07:11:37;7.80;99.90
11188;DHT22;5650;52.700;7.306;2024-03-02T07:14:05;7.90;99.90
11188;DHT22;5650;52.700;7.306;2024-03-02T07:16:32;7.90;99.90
11188;DHT22;5650;52.700;7.306;2024-03-02T07:19:03;8.00;99.90
11188;DHT22;5650;52.700;7.306;2024-03-02T07:21:34;8.00;99.90
11188;DHT22;5650;52.700;7.306;2024-03-02T07:24:01;8.10;99.90
11188;DHT22;5650;52.700;7.306;2024-03-02T07:26:34;8.30;99.90
11188;DHT22;5650;52.700;7.306;2024-03-02T07:29:04;8.40;99.90
11188;DHT22;5650;52.700;7.306;2024-03-02T07:31:40;8.50;99.90
11188;DHT22;5650;52.700;7.306;2024-03-02T07:34:07;8.60;99.90
11188;DHT22;5650;52.700;7.306;2024-03-02T07:36:35;8.60;99.90
11188;DHT22;5650;52.700;7.306;2024-03-02T07:39:04;8.60;99.90
11188;DHT22;5650;52.700;7.306;2024-03-02T07:41:35;8.50;99.90
11188;DHT22;5650;52.700;7.306;2024-03-02T07:44:02;8.50;99.90
11188;DHT22;5650;52.700;7.306;2024-03-02T07:46:38;8.60;99.90
11188;DHT22;5650;52.700;7.306;2024-03-02T07:49:05;8.60;99.90
11188;DHT22;5650;52.700;7.306;2024-03-02T07:51:35;8.60;99.90
11188;DHT22;5650;52.700;7.306;2024-03-02T07:54:09;8.70;99.90
11188;DHT22;5650;52.700;7.306;2024-03-02T07:56:37;8.70;99.90
11188;DHT22;5650;52.700;7.306;2024-03-02T07:59:08;8.80;99.90
11188;DHT22;5650;52.700;7.306;2024-03-02T08:01:41;8.80;99.90
11188;DHT22;5650;52.700;7.306;2024-03-02T08:04:08;8.90;99.90
11188;DHT22;5650;52.700;7.306;2024-03-02T08:06:35;9.20;99.90
11188;DHT22;5650;52.700;7.306;2024-03-02T08:09:02;9.40;99.90
11188;DHT22;5650;52.700;7.306;2024-03-02T08:11:34;9.50;99.90
11188;DHT22;5650;52.700;7.306;2024-03-02T08:14:04;9.60;99.90
11188;DHT22;5650;52.700;7.306;2024-03-02T08:16:40;9.60;99.90
11188;DHT22;5650;52.700;7.306;2024-03-02T08:19:13;9.60;99.90
11188;DHT22;5650;52.700;7.306;2024-03-02T08:21:46;9.60;99.90
11188;DHT22;5650;52.700;7.306;2024-03-02T08:24:13;9.60;99.90
11188;DHT22;5650;52.700;7.306;2024-03-02T08:26:44;9.70;99.90
11188;DHT22;5650;52.700;7.306;2024-03-02T08:29:12;9.70;99.90
11188;DHT22;5650;52.700;7.306;2024-03-02T08:31:39;9.80;99.90
11188;DHT22;5650;52.700;7.306;2024-03-02T08:34:06;9.90;99.90
11188;DHT22;5650;52.700;7.306;2024-03-02T08:36:32;9.90;99.90
11188;DHT22;5650;52.700;7.306;2024-03-02T08:39:09;9.90;99.90
11188;DHT22;5650;52.700;7.306;2024-03-02T08:44:29;10.00;99.90
11188;DHT22;5650;52.700;7.306;2024-03-02T08:47:03;10.10;99.90
11188;DHT22;5650;52.700;7.306;2024-03-02T08:49:33;10.20;99.90
11188;DHT22;5650;52.700;7.306;2024-03-02T08:52:00;10.30;99.90
11188;DHT22;5650;52.700;7.306;2024-03-02T08:54:28;10.40;99.90
11188;DHT22;5650;52.700;7.306;2024-03-02T08:56:55;10.40;99.90
11188;DHT22;5650;52.700;7.306;2024-03-02T08:59:26;10.50;99.90
11188;DHT22;5650;52.700;7.306;2024-03-02T09:01:56;10.60;99.90
11188;DHT22;5650;52.700;7.306;2024-03-02T09:04:23;10.60;99.90
11188;DHT22;5650;52.700;7.306;2024-03-02T09:06:50;10.70;99.90
11188;DHT22;5650;52.700;7.306;2024-03-02T09:09:23;10.80;99.90
11188;DHT22;5650;52.700;7.306;2024-03-02T09:11:50;10.80;99.90
11188;DHT22;5650;52.700;7.306;2024-03-02T09:14:20;10.70;99.90
11188;DHT22;5650;52.700;7.306;2024-03-02T09:16:49;10.70;99.90
11188;DHT22;5650;52.700;7.306;2024-03-02T09:19:16;10.60;99.90
11188;DHT22;5650;52.700;7.306;2024-03-02T09:21:47;10.60;99.90
11188;DHT22;5650;52.700;7.306;2024-03-02T09:24:18;10.60;99.90
11188;DHT22;5650;52.700;7.306;2024-03-02T09:26:45;10.70;99.90
11188;DHT22;5650;52.700;7.306;2024-03-02T09:29:12;10.80;99.90
11188;DHT22;5650;52.700;7.306;2024-03-02T09:31:40;10.90;99.90
11188;DHT22;5650;52.700;7.306;2024-03-02T09:34:09;10.90;99.90
11188;DHT22;5650;52.700;7.306;2024-03-02T09:36:36;11.00;99.90
11188;DHT22;5650;52.700;7.306;2024-03-02T09:39:03;11.00;99.90
11188;DHT22;5650;52.700;7.306;2024-03-02T09:41:33;11.00;99.90
11188;DHT22;5650;52.700;7.306;2024-03-02T09:44:04;11.00;99.90
11188;DHT22;5650;52.700;7.306;2024-03-02T09:46:34;11.00;99.90
11188;DHT22;5650;52.700;7.306;2024-03-02T09:49:02;11.10;99.90
11188;DHT22;5650;52.700;7.306;2024-03-02T09:51:31;11.10;99.90
11188;DHT22;5650;52.700;7.306;2024-03-02T09:54:09;11.20;99.90
11188;DHT22;5650;52.700;7.306;2024-03-02T09:56:36;11.20;99.90
11188;DHT22;5650;52.700;7.306;2024-03-02T09:59:10;11.20;99.90
11188;DHT22;5650;52.700;7.306;2024-03-02T10:01:39;11.30;99.90
11188;DHT22;5650;52.700;7.306;2024-03-02T10:04:06;11.30;99.90
11188;DHT22;5650;52.700;7.306;2024-03-02T10:06:34;11.30;99.90
11188;DHT22;5650;52.700;7.306;2024-03-02T10:09:08;11.30;99.90
11188;DHT22;5650;52.700;7.306;2024-03-02T10:11:35;11.40;99.90
11188;DHT22;5650;52.700;7.306;2024-03-02T10:14:05;11.50;99.90
11188;DHT22;5650;52.700;7.306;2024-03-02T10:16:44;11.60;99.90
11188;DHT22;5650;52.700;7.306;2024-03-02T10:19:16;11.70;99.90
11188;DHT22;5650;52.700;7.306;2024-03-02T10:21:46;11.60;99.90
11188;DHT22;5650;52.700;7.306;2024-03-02T10:24:24;11.60;99.90
11188;DHT22;5650;52.700;7.306;2024-03-02T10:26:54;11.60;99.90
11188;DHT22;5650;52.700;7.306;2024-03-02T10:29:30;11.80;99.90
11188;DHT22;5650;52.700;7.306;2024-03-02T10:32:04;11.80;99.90
11188;DHT22;5650;52.700;7.306;2024-03-02T10:34:35;11.70;99.60
11188;DHT22;5650;52.700;7.306;2024-03-02T10:37:05;11.60;99.90
11188;DHT22;5650;52.700;7.306;2024-03-02T10:39:35;11.50;99.90
11188;DHT22;5650;52.700;7.306;2024-03-02T10:42:04;11.60;99.90
11188;DHT22;5650;52.700;7.306;2024-03-02T10:44:35;11.70;99.90
11188;DHT22;5650;52.700;7.306;2024-03-02T10:47:08;11.90;99.90
11188;DHT22;5650;52.700;7.306;2024-03-02T10:49:36;12.00;99.90
11188;DHT22;5650;52.700;7.306;2024-03-02T10:52:09;12.10;99.50
11188;DHT22;5650;52.700;7.306;2024-03-02T10:54:39;12.20;99.60
11188;DHT22;5650;52.700;7.306;2024-03-02T10:57:07;12.20;99.60
11188;DHT22;5650;52.700;7.306;2024-03-02T10:59:37;12.30;99.40
11188;DHT22;5650;52.700;7.306;2024-03-02T11:02:14;12.20;98.90
11188;DHT22;5650;52.700;7.306;2024-03-02T11:04:42;12.20;99.20
11188;DHT22;5650;52.700;7.306;2024-03-02T11:07:13;12.10;99.40
11188;DHT22;5650;52.700;7.306;2024-03-02T11:09:47;12.20;98.90
11188;DHT22;5650;52.700;7.306;2024-03-02T11:12:29;12.20;98.70
11188;DHT22;5650;52.700;7.306;2024-03-02T11:14:58;12.30;98.80
11188;DHT22;5650;52.700;7.306;2024-03-02T11:17:27;12.30;98.80
11188;DHT22;5650;52.700;7.306;2024-03-02T11:20:00;12.30;98.60
11188;DHT22;5650;52.700;7.306;2024-03-02T11:22:32;12.40;98.70
11188;DHT22;5650;52.700;7.306;2024-03-02T11:24:59;12.40;98.40
11188;DHT22;5650;52.700;7.306;2024-03-02T11:30:52;12.40;98.10
11188;DHT22;5650;52.700;7.306;2024-03-02T11:33:26;12.40;98.00
11188;DHT22;5650;52.700;7.306;2024-03-02T11:36:01;12.40;98.30
11188;DHT22;5650;52.700;7.306;2024-03-02T11:38:43;12.50;97.50
11188;DHT22;5650;52.700;7.306;2024-03-02T11:41:14;12.50;97.40
11188;DHT22;5650;52.700;7.306;2024-03-02T11:43:42;12.50;97.30
11188;DHT22;5650;52.700;7.306;2024-03-02T11:46:11;12.60;97.30
11188;DHT22;5650;52.700;7.306;2024-03-02T11:48:39;12.60;96.60
11188;DHT22;5650;52.700;7.306;2024-03-02T11:51:06;12.60;97.00
11188;DHT22;5650;52.700;7.306;2024-03-02T11:53:35;12.60;96.90
11188;DHT22;5650;52.700;7.306;2024-03-02T11:56:06;12.70;96.30
11188;DHT22;5650;52.700;7.306;2024-03-02T11:58:43;12.80;96.00
11188;DHT22;5650;52.700;7.306;2024-03-02T12:01:13;12.90;95.80
11188;DHT22;5650;52.700;7.306;2024-03-02T12:03:41;12.90;95.80
11188;DHT22;5650;52.700;7.306;2024-03-02T12:06:15;13.00;95.50
11188;DHT22;5650;52.700;7.306;2024-03-02T12:08:43;13.00;95.70
11188;DHT22;5650;52.700;7.306;2024-03-02T12:11:15;13.10;96.00
11188;DHT22;5650;52.700;7.306;2024-03-02T12:13:52;13.20;95.70
11188;DHT22;5650;52.700;7.306;2024-03-02T12:16:24;13.30;95.30
11188;DHT22;5650;52.700;7.306;2024-03-02T12:18:51;13.40;94.30
11188;DHT22;5650;52.700;7.306;2024-03-02T12:21:20;13.40;94.10
11188;DHT22;5650;52.700;7.306;2024-03-02T12:23:47;13.40;93.80
11188;DHT22;5650;52.700;7.306;2024-03-02T12:26:17;13.50;93.10
11188;DHT22;5650;52.700;7.306;2024-03-02T12:28:47;13.50;92.70
11188;DHT22;5650;52.700;7.306;2024-03-02T12:31:17;13.50;92.90
11188;DHT22;5650;52.700;7.306;2024-03-02T12:33:44;13.40;93.00
11188;DHT22;5650;52.700;7.306;2024-03-02T12:36:13;13.30;93.20
11188;DHT22;5650;52.700;7.306;2024-03-02T12:38:52;13.30;93.30
11188;DHT22;5650;52.700;7.306;2024-03-02T12:41:35;13.40;92.80
11188;DHT22;5650;52.700;7.306;2024-03-02T12:44:04;13.40;92.80
11188;DHT22;5650;52.700;7.306;2024-03-02T12:46:32;13.40;92.50
11188;DHT22;5650;52.700;7.306;2024-03-02T12:49:08;13.50;92.40
11188;DHT22;5650;52.700;7.306;2024-03-02T12:51:37;13.50;92.40
11188;DHT22;5650;52.700;7.306;2024-03-02T12:54:09;13.60;92.00
11188;DHT22;5650;52.700;7.306;2024-03-02T12:56:41;13.60;91.90
11188;DHT22;5650;52.700;7.306;2024-03-02T12:59:18;13.60;91.90
11188;DHT22;5650;52.700;7.306;2024-03-02T13:01:53;13.60;91.70
11188;DHT22;5650;52.700;7.306;2024-03-02T13:04:32;13.60;92.00
11188;DHT22;5650;52.700;7.306;2024-03-02T13:07:02;13.70;92.70
11188;DHT22;5650;52.700;7.306;2024-03-02T13:09:29;13.70;91.80
11188;DHT22;5650;52.700;7.306;2024-03-02T13:12:07;13.80;91.90
11188;DHT22;5650;52.700;7.306;2024-03-02T13:14:43;13.70;91.80
11188;DHT22;5650;52.700;7.306;2024-03-02T13:17:16;13.70;91.80
11188;DHT22;5650;52.700;7.306;2024-03-02T13:19:53;13.80;91.50
11188;DHT22;5650;52.700;7.306;2024-03-02T13:22:20;13.80;91.80
11188;DHT22;5650;52.700;7.306;2024-03-02T13:24:49;13.80;91.80
11188;DHT22;5650;52.700;7.306;2024-03-02T13:27:17;13.80;91.90
11188;DHT22;5650;52.700;7.306;2024-03-02T13:29:49;13.90;91.40
11188;DHT22;5650;52.700;7.306;2024-03-02T13:32:19;13.90;91.20
11188;DHT22;5650;52.700;7.306;2024-03-02T13:34:49;13.80;90.90
11188;DHT22;5650;52.700;7.306;2024-03-02T13:37:16;13.80;91.20
11188;DHT22;5650;52.700;7.306;2024-03-02T13:39:43;13.80;91.20
11188;DHT22;5650;52.700;7.306;2024-03-02T13:42:11;13.90;91.70
11188;DHT22;5650;52.700;7.306;2024-03-02T13:44:43;14.00;91.10
11188;DHT22;5650;52.700;7.306;2024-03-02T13:47:11;14.00;91.00
11188;DHT22;5650;52.700;7.306;2024-03-02T13:49:52;14.00;90.30
11188;DHT22;5650;52.700;7.306;2024-03-02T13:52:22;14.00;90.30
11188;DHT22;5650;52.700;7.306;2024-03-02T13:54:49;13.90;90.60
11188;DHT22;5650;52.700;7.306;2024-03-02T13:57:24;13.90;90.90
11188;DHT22;5650;52.700;7.306;2024-03-02T13:59:52;13.80;91.10
11188;DHT22;5650;52.700;7.306;2024-03-02T14:02:23;13.70;91.00
11188;DHT22;5650;52.700;7.306;2024-03-02T14:04:54;13.70;91.20
11188;DHT22;5650;52.700;7.306;2024-03-02T14:07:27;13.70;91.30
11188;DHT22;5650;52.700;7.306;2024-03-02T14:09:57;13.80;91.40
11188;DHT22;5650;52.700;7.306;2024-03-02T14:12:27;13.80;91.20
11188;DHT22;5650;52.700;7.306;2024-03-02T14:14:56;13.90;91.50
11188;DHT22;5650;52.700;7.306;2024-03-02T14:17:24;14.00;91.60
11188;DHT22;5650;52.700;7.306;2024-03-02T14:19:51;14.00;91.70
11188;DHT22;5650;52.700;7.306;2024-03-02T14:22:19;14.00;89.80
11188;DHT22;5650;52.700;7.306;2024-03-02T14:24:46;14.00;88.80
11188;DHT22;5650;52.700;7.306;2024-03-02T14:27:18;14.00;88.70
11188;DHT22;5650;52.700;7.306;2024-03-02T14:29:49;14.00;88.40
11188;DHT22;5650;52.700;7.306;2024-03-02T14:32:20;14.00;88.00
11188;DHT22;5650;52.700;7.306;2024-03-02T14:34:47;13.90;88.90
11188;DHT22;5650;52.700;7.306;2024-03-02T14:37:15;13.90;88.80
11188;DHT22;5650;52.700;7.306;2024-03-02T14:39:42;13.90;89.00
11188;DHT22;5650;52.700;7.306;2024-03-02T14:42:12;13.90;89.90
11188;DHT22;5650;52.700;7.306;2024-03-02T14:44:42;13.80;90.00
11188;DHT22;5650;52.700;7.306;2024-03-02T14:47:10;13.80;90.20
11188;DHT22;5650;52.700;7.306;2024-03-02T14:49:40;13.80;90.50
11188;DHT22;5650;52.700;7.306;2024-03-02T14:52:11;13.70;90.60
11188;DHT22;5650;52.700;7.306;2024-03-02T14:54:38;13.70;90.60
11188;DHT22;5650;52.700;7.306;2024-03-02T14:57:08;13.70;90.90
11188;DHT22;5650;52.700;7.306;2024-03-02T14:59:38;13.70;91.20
11188;DHT22;5650;52.700;7.306;2024-03-02T15:02:06;13.70;91.30
11188;DHT22;5650;52.700;7.306;2024-03-02T15:04:38;13.70;91.40
11188;DHT22;5650;52.700;7.306;2024-03-02T15:07:14;13.80;91.70
11188;DHT22;5650;52.700;7.306;2024-03-02T15:09:41;13.80;91.30
11188;DHT22;5650;52.700;7.306;2024-03-02T15:12:11;13.80;91.30
11188;DHT22;5650;52.700;7.306;2024-03-02T15:14:42;13.80;91.40
11188;DHT22;5650;52.700;7.306;2024-03-02T15:17:16;13.80;91.80
11188;DHT22;5650;52.700;7.306;2024-03-02T15:19:45;13.80;92.10
11188;DHT22;5650;52.700;7.306;2024-03-02T15:22:12;13.80;92.20
11188;DHT22;5650;52.700;7.306;2024-03-02T15:24:40;13.80;92.50
11188;DHT22;5650;52.700;7.306;2024-03-02T15:27:10;13.80;92.30
11188;DHT22;5650;52.700;7.306;2024-03-02T15:29:45;13.80;92.40
11188;DHT22;5650;52.700;7.306;2024-03-02T15:32:19;13.80;92.70
11188;DHT22;5650;52.700;7.306;2024-03-02T15:34:48;13.80;92.70
11188;DHT22;5650;52.700;7.306;2024-03-02T15:37:15;13.80;92.70
11188;DHT22;5650;52.700;7.306;2024-03-02T15:39:43;13.90;92.50
11188;DHT22;5650;52.700;7.306;2024-03-02T15:42:20;13.90;92.30
11188;DHT22;5650;52.700;7.306;2024-03-02T15:44:49;13.90;92.00
11188;DHT22;5650;52.700;7.306;2024-03-02T15:47:19;13.90;92.00
11188;DHT22;5650;52.700;7.306;2024-03-02T15:49:47;13.90;92.10
11188;DHT22;5650;52.700;7.306;2024-03-02T15:52:18;13.90;91.80
11188;DHT22;5650;52.700;7.306;2024-03-02T15:54:46;14.00;91.60
11188;DHT22;5650;52.700;7.306;2024-03-02T15:57:19;14.00;91.90
11188;DHT22;5650;52.700;7.306;2024-03-02T15:59:54;14.00;91.40
11188;DHT22;5650;52.700;7.306;2024-03-02T16:02:21;14.00;90.80
11188;DHT22;5650;52.700;7.306;2024-03-02T16:04:52;14.00;91.00
11188;DHT22;5650;52.700;7.306;2024-03-02T16:07:19;14.00;91.00
11188;DHT22;5650;52.700;7.306;2024-03-02T16:09:54;14.00;90.60
11188;DHT22;5650;52.700;7.306;2024-03-02T16:12:24;13.90;90.90
11188;DHT22;5650;52.700;7.306;2024-03-02T16:14:57;13.90;91.00
11188;DHT22;5650;52.700;7.306;2024-03-02T16:17:30;13.90;91.50
11188;DHT22;5650;52.700;7.306;2024-03-02T16:19:59;13.80;91.40